Burwash Airport
CYDB : now visible

Airfield :











YOU CAN JOIN US ON...

 
LOGIN :

Register | Disclaimer

   EN    FR    IT 

 









Legend :    VFR   Marginal VFR   IFR   Intensive IFR   Very Intensive IFR
Visi :
Ceiling :
>= 8 km
>= 3000ft
5 to 8 km
1000 to 3000 ft
1500m to 5 km
500 to 1000 ft
800 to 1500m
200 to 500 ft
< 800m
< 200 ft
Symbols :   Thunderstorms  Fog  Heavy snow  Heavy precipitations  Wind > 20 kt






- Airport Elevation : 2647 ft
- IATA code : YDB


CYDB - Burwash

CURRENT METAR :
  • 220300Z AUTO 00000KT 9SM FEW100 M25/M28 A2933 RMK SLP027

EXPIRED METARs :
  • 220200Z AUTO 29004KT 9SM CLR M22/M25 A2934 RMK SLP026
  • 220100Z AUTO 29005KT 9SM FEW120 M21/M24 A2933 RMK SLP022

TAF TAF CYDB
Valid from the 22 at 00:00 until the 22 at 12:00 UTC


212338Z 2200/2212 VRB03KT P6SM FEW100 SCT150
PROB30 2200/2206 BKN008 RMK NXT FCST BY 220600Z



MET'MAP, your aeronautical weather chart ! - Copyright ORBIFLY December 2007 - Disclaimer

ORBIFLY MET'MAP TEAM :

Programming & Development : Alexandra Zaïnal
Concept & original design : Baudouin d'Aumeries
Assistance for programming : Marc-Olivier Méhu
Technical & hardware support : Manuel Goepfert

Contact : metmap@orbifly.com




SOURCES & CREDITS :

   NOAA       Earth
Advisory